Terminal Aerodrome Forecast
Issued by NWS Sioux Falls, SD

Home | Current Version | Previous Version | Text Only | Print | Product List | Glossary On
Versions: 1 2 3 4 5 6 7 8 9 10 11 12 13 14 15 16 17 18 19 20 21 22 23 24
000
FTUS43 KFSD 221100
TAFFSD
TAF
KFSD 221120Z 2212/2312 35012KT P6SM SCT060 SCT120
     FM221400 35014KT P6SM SCT025
     FM221700 01013G24KT P6SM SCT050
     FM230200 05004KT P6SM SCT200=

USA.gov is the U.S. government's official web portal to all federal, state and local government web resources and services.